Time;durP1;ratioP1;P1;durP2;ratioP2;P2;SDS_P1;SDS_P2;PMS_P1;PMS_P2;Temp;Humidity;BMP_temperature;BMP_pressure;BME280_temperature;BME280_humidity;BME280_pressure;Samples;Min_cycle;Max_cycle;Signal;HPM_P1;HPM_P2
2023/05/03 00:01:25;;;;;;;4.30;1.50;;;;;;;-128.00;-1.00;-1.00;97929;294;1002638;-33
2023/05/03 00:03:52;;;;;;;3.00;1.40;;;;;;;-128.00;-1.00;-1.00;98011;294;1004709;-29
2023/05/03 00:06:18;;;;;;;2.20;1.30;;;;;;;-128.00;-1.00;-1.00;97819;283;1003024;-33
2023/05/03 00:08:44;;;;;;;3.70;1.90;;;;;;;-128.00;-1.00;-1.00;97885;294;1002557;-33
2023/05/03 00:11:10;;;;;;;5.60;1.80;;;;;;;-128.00;-1.00;-1.00;97872;295;1004134;-29
2023/05/03 00:13:35;;;;;;;4.80;2.30;;;;;;;-128.00;-1.00;-1.00;97915;294;1003281;-34
2023/05/03 00:16:01;;;;;;;6.50;2.30;;;;;;;-128.00;-1.00;-1.00;98099;294;1003077;-33
2023/05/03 00:18:27;;;;;;;3.70;1.60;;;;;;;-128.00;-1.00;-1.00;97965;294;1003619;-30
2023/05/03 00:20:54;;;;;;;7.00;2.30;;;;;;;-128.00;-1.00;-1.00;97857;294;1003732;-35
2023/05/03 00:23:20;;;;;;;4.90;2.40;;;;;;;-128.00;-1.00;-1.00;97929;294;1003822;-33
2023/05/03 00:25:46;;;;;;;8.70;2.60;;;;;;;-128.00;-1.00;-1.00;97935;294;1004452;-34
2023/05/03 00:28:11;;;;;;;5.90;3.30;;;;;;;-128.00;-1.00;-1.00;97904;294;1004136;-33
2023/05/03 00:30:37;;;;;;;5.00;3.20;;;;;;;-128.00;-1.00;-1.00;98000;294;1003116;-33
2023/05/03 00:33:02;;;;;;;4.80;3.30;;;;;;;-128.00;-1.00;-1.00;97990;294;1003437;-33
2023/05/03 00:35:28;;;;;;;3.90;2.60;;;;;;;-128.00;-1.00;-1.00;98003;294;1002919;-33
2023/05/03 00:37:54;;;;;;;4.40;2.80;;;;;;;-128.00;-1.00;-1.00;97979;294;1003037;-33
2023/05/03 00:40:19;;;;;;;4.10;2.40;;;;;;;-128.00;-1.00;-1.00;98096;294;1005419;-34
2023/05/03 00:42:45;;;;;;;6.00;3.20;;;;;;;-128.00;-1.00;-1.00;97844;294;1003525;-33
2023/05/03 00:45:11;;;;;;;12.70;4.80;;;;;;;-128.00;-1.00;-1.00;97826;294;1004865;-32
2023/05/03 00:47:36;;;;;;;5.10;3.30;;;;;;;-128.00;-1.00;-1.00;97916;294;1003149;-29
2023/05/03 00:50:03;;;;;;;7.90;4.60;;;;;;;-128.00;-1.00;-1.00;98007;296;1003669;-32
2023/05/03 00:52:29;;;;;;;4.20;2.70;;;;;;;-128.00;-1.00;-1.00;97926;294;1004225;-29
2023/05/03 00:54:56;;;;;;;4.70;3.40;;;;;;;-128.00;-1.00;-1.00;97985;295;1003804;-34
2023/05/03 00:57:23;;;;;;;7.50;3.90;;;;;;;-128.00;-1.00;-1.00;98103;284;1003748;-28
2023/05/03 00:59:49;;;;;;;12.90;4.70;;;;;;;-128.00;-1.00;-1.00;97918;307;1004360;-34
2023/05/03 01:02:14;;;;;;;5.40;3.30;;;;;;;-128.00;-1.00;-1.00;97956;295;1002935;-34
2023/05/03 01:04:41;;;;;;;5.90;4.10;;;;;;;-128.00;-1.00;-1.00;97898;295;1002750;-30
2023/05/03 01:07:26;;;;;;;9.80;4.80;;;;;;;-128.00;-1.00;-1.00;98007;295;1003157;-30
2023/05/03 01:10:00;;;;;;;7.00;4.30;;;;;;;-128.00;-1.00;-1.00;98051;295;1003374;-29
2023/05/03 01:12:49;;;;;;;7.20;4.50;;;;;;;-128.00;-1.00;-1.00;97906;284;1002920;-30
2023/05/03 01:15:20;;;;;;;13.20;3.90;;;;;;;-128.00;-1.00;-1.00;97877;295;1003264;-30
2023/05/03 01:18:01;;;;;;;6.10;4.80;;;;;;;-128.00;-1.00;-1.00;97858;295;1005538;-30
2023/05/03 01:20:29;;;;;;;5.70;3.30;;;;;;;-128.00;-1.00;-1.00;97939;285;1002223;-30
2023/05/03 01:23:04;;;;;;;9.70;3.60;;;;;;;-128.00;-1.00;-1.00;97952;295;1003137;-33
2023/05/03 01:25:30;;;;;;;12.20;4.00;;;;;;;-128.00;-1.00;-1.00;98002;295;1004101;-29
2023/05/03 01:27:56;;;;;;;10.00;4.80;;;;;;;-128.00;-1.00;-1.00;97805;295;1003104;-33
2023/05/03 01:30:23;;;;;;;3.90;2.50;;;;;;;-128.00;-1.00;-1.00;97944;295;1003366;-34
2023/05/03 01:33:00;;;;;;;14.00;3.00;;;;;;;-128.00;-1.00;-1.00;97963;295;1003911;-33
2023/05/03 01:35:29;;;;;;;4.50;2.70;;;;;;;-128.00;-1.00;-1.00;97986;295;1002746;-30
2023/05/03 01:37:56;;;;;;;8.90;3.20;;;;;;;-128.00;-1.00;-1.00;97921;295;1003330;-30
2023/05/03 01:40:22;;;;;;;7.00;2.90;;;;;;;-128.00;-1.00;-1.00;97850;295;1004333;-34
2023/05/03 01:42:48;;;;;;;4.30;3.10;;;;;;;-128.00;-1.00;-1.00;98054;295;1003569;-33
2023/05/03 01:45:13;;;;;;;4.60;2.10;;;;;;;-128.00;-1.00;-1.00;98111;295;1004106;-31
2023/05/03 01:47:39;;;;;;;4.00;2.50;;;;;;;-128.00;-1.00;-1.00;97955;295;1003814;-34
2023/05/03 01:50:05;;;;;;;8.50;3.00;;;;;;;-128.00;-1.00;-1.00;97916;284;1003271;-33
2023/05/03 01:52:32;;;;;;;3.40;2.80;;;;;;;-128.00;-1.00;-1.00;97907;295;1003487;-33
2023/05/03 01:54:58;;;;;;;2.60;2.00;;;;;;;-128.00;-1.00;-1.00;97882;284;1002615;-29
2023/05/03 01:57:24;;;;;;;5.90;2.70;;;;;;;-128.00;-1.00;-1.00;98052;295;1003806;-33
2023/05/03 01:59:50;;;;;;;9.30;3.10;;;;;;;-128.00;-1.00;-1.00;97971;295;1003028;-30
2023/05/03 02:02:15;;;;;;;3.70;1.90;;;;;;;-128.00;-1.00;-1.00;97924;295;1003506;-29
2023/05/03 02:04:41;;;;;;;5.30;2.90;;;;;;;-128.00;-1.00;-1.00;98051;295;1005081;-29
2023/05/03 02:07:08;;;;;;;3.70;1.70;;;;;;;-128.00;-1.00;-1.00;97965;295;1003182;-33
2023/05/03 02:09:33;;;;;;;3.30;2.30;;;;;;;-128.00;-1.00;-1.00;97826;295;1003856;-29
2023/05/03 02:11:59;;;;;;;3.50;2.40;;;;;;;-128.00;-1.00;-1.00;97928;295;1003333;-33
2023/05/03 02:14:24;;;;;;;5.30;2.50;;;;;;;-128.00;-1.00;-1.00;97900;285;1004167;-33
2023/05/03 02:16:50;;;;;;;3.10;2.40;;;;;;;-128.00;-1.00;-1.00;97877;295;1003325;-30
2023/05/03 02:19:16;;;;;;;5.60;3.00;;;;;;;-128.00;-1.00;-1.00;97973;283;1003099;-32
2023/05/03 02:21:42;;;;;;;4.00;2.50;;;;;;;-128.00;-1.00;-1.00;97816;295;1003589;-35
2023/05/03 02:24:07;;;;;;;8.20;2.70;;;;;;;-128.00;-1.00;-1.00;97957;295;1003003;-35
2023/05/03 02:26:33;;;;;;;7.50;2.00;;;;;;;-128.00;-1.00;-1.00;97281;295;1534198;-34
2023/05/03 02:28:59;;;;;;;3.80;2.40;;;;;;;-128.00;-1.00;-1.00;98105;295;1003138;-31
2023/05/03 02:31:25;;;;;;;4.00;1.50;;;;;;;-128.00;-1.00;-1.00;97911;296;1003117;-35
2023/05/03 02:33:54;;;;;;;5.70;2.20;;;;;;;-128.00;-1.00;-1.00;43496;295;7504848;-34
2023/05/03 02:36:20;;;;;;;3.40;2.10;;;;;;;-128.00;-1.00;-1.00;25540;295;7504915;-34
2023/05/03 02:38:48;;;;;;;8.10;3.00;;;;;;;-128.00;-1.00;-1.00;66007;295;4267565;-30
2023/05/03 02:41:15;;;;;;;14.30;3.50;;;;;;;-128.00;-1.00;-1.00;32871;295;7505240;-31
2023/05/03 02:43:43;;;;;;;5.70;3.20;;;;;;;-128.00;-1.00;-1.00;19697;288;7504274;-35
2023/05/03 02:46:09;;;;;;;5.10;2.40;;;;;;;-128.00;-1.00;-1.00;18913;295;7504803;-32
2023/05/03 02:48:37;;;;;;;5.70;3.00;;;;;;;-128.00;-1.00;-1.00;19650;295;7504233;-30
2023/05/03 02:51:04;;;;;;;10.40;3.00;;;;;;;-128.00;-1.00;-1.00;18866;295;7504683;-30
2023/05/03 02:53:30;;;;;;;6.70;3.00;;;;;;;-128.00;-1.00;-1.00;18471;295;7504886;-32
2023/05/03 02:55:58;;;;;;;5.40;2.70;;;;;;;-128.00;-1.00;-1.00;19570;295;7504937;-33
2023/05/03 02:58:27;;;;;;;7.20;2.30;;;;;;;-128.00;-1.00;-1.00;20281;295;7506215;-32
2023/05/03 03:00:54;;;;;;;8.50;2.20;;;;;;;-128.00;-1.00;-1.00;19575;295;7505193;-36
2023/05/03 03:03:19;;;;;;;8.50;2.20;;;;;;;-128.00;-1.00;-1.00;23078;295;7504232;-30
2023/05/03 03:05:45;;;;;;;5.50;2.40;;;;;;;-128.00;-1.00;-1.00;21028;295;7504396;-34
2023/05/03 03:08:12;;;;;;;3.90;2.00;;;;;;;-128.00;-1.00;-1.00;24498;288;7504460;-33
2023/05/03 03:10:39;;;;;;;4.70;1.90;;;;;;;-128.00;-1.00;-1.00;22158;295;7504126;-34
2023/05/03 03:13:05;;;;;;;4.90;3.00;;;;;;;-128.00;-1.00;-1.00;19525;295;7504346;-31
2023/05/03 03:15:31;;;;;;;12.30;3.00;;;;;;;-128.00;-1.00;-1.00;18884;295;7504847;-32
2023/05/03 03:17:59;;;;;;;12.80;2.50;;;;;;;-128.00;-1.00;-1.00;19581;295;7504713;-30
2023/05/03 03:20:25;;;;;;;12.80;2.50;;;;;;;-128.00;-1.00;-1.00;20709;288;7504190;-34
2023/05/03 03:22:51;;;;;;;6.50;2.70;;;;;;;-128.00;-1.00;-1.00;21710;335;7504401;-34
2023/05/03 03:25:17;;;;;;;8.40;3.40;;;;;;;-128.00;-1.00;-1.00;18923;287;7505251;-34
2023/05/03 03:27:43;;;;;;;4.10;2.60;;;;;;;-128.00;-1.00;-1.00;19511;295;7505854;-31
2023/05/03 03:30:10;;;;;;;4.20;2.10;;;;;;;-128.00;-1.00;-1.00;18496;347;7505034;-31
2023/05/03 03:32:36;;;;;;;5.90;2.90;;;;;;;-128.00;-1.00;-1.00;18469;287;7504336;-30
2023/05/03 03:35:02;;;;;;;9.00;2.30;;;;;;;-128.00;-1.00;-1.00;18485;287;7505040;-31
2023/05/03 03:37:27;;;;;;;13.20;3.60;;;;;;;-128.00;-1.00;-1.00;18480;287;7504849;-31
2023/05/03 03:39:53;;;;;;;7.60;3.30;;;;;;;-128.00;-1.00;-1.00;18477;288;7504770;-34
2023/05/03 03:42:20;;;;;;;9.50;3.10;;;;;;;-128.00;-1.00;-1.00;18456;288;7504436;-34
2023/05/03 03:44:46;;;;;;;10.10;2.10;;;;;;;-128.00;-1.00;-1.00;18473;295;7506489;-34
2023/05/03 03:47:12;;;;;;;7.90;2.40;;;;;;;-128.00;-1.00;-1.00;18463;295;7505213;-32
2023/05/03 03:49:39;;;;;;;6.00;3.50;;;;;;;-128.00;-1.00;-1.00;19600;335;7504335;-34
2023/05/03 03:52:05;;;;;;;5.60;3.00;;;;;;;-128.00;-1.00;-1.00;18915;295;7504386;-29
2023/05/03 03:54:33;;;;;;;12.90;3.80;;;;;;;-128.00;-1.00;-1.00;18880;347;7504465;-30
2023/05/03 03:57:00;;;;;;;4.80;3.50;;;;;;;-128.00;-1.00;-1.00;18460;295;7504841;-32
2023/05/03 03:59:25;;;;;;;7.80;3.30;;;;;;;-128.00;-1.00;-1.00;18481;288;7504549;-35
2023/05/03 04:01:51;;;;;;;19.30;4.10;;;;;;;-128.00;-1.00;-1.00;18878;295;7505693;-30
2023/05/03 04:04:18;;;;;;;12.50;4.40;;;;;;;-128.00;-1.00;-1.00;18879;288;7504465;-34
2023/05/03 04:06:44;;;;;;;9.10;4.20;;;;;;;-128.00;-1.00;-1.00;18869;307;7504433;-30
2023/05/03 04:09:11;;;;;;;5.40;3.10;;;;;;;-128.00;-1.00;-1.00;18478;335;7506260;-31
2023/05/03 04:11:37;;;;;;;5.80;4.00;;;;;;;-128.00;-1.00;-1.00;18908;295;7504110;-33
2023/05/03 04:14:03;;;;;;;7.80;3.20;;;;;;;-128.00;-1.00;-1.00;18878;295;7504365;-30
2023/05/03 04:16:30;;;;;;;8.80;3.20;;;;;;;-128.00;-1.00;-1.00;19582;295;7504582;-36
2023/05/03 04:18:56;;;;;;;11.90;3.10;;;;;;;-128.00;-1.00;-1.00;20555;295;7504560;-32
2023/05/03 04:21:24;;;;;;;10.10;3.80;;;;;;;-128.00;-1.00;-1.00;20313;288;7506062;-36
2023/05/03 04:23:51;;;;;;;6.40;2.70;;;;;;;-128.00;-1.00;-1.00;18868;338;7504600;-32
2023/05/03 04:26:21;;;;;;;6.80;3.30;;;;;;;-128.00;-1.00;-1.00;19596;295;7505058;-36
2023/05/03 04:28:46;;;;;;;5.20;2.00;;;;;;;-128.00;-1.00;-1.00;18476;288;7506635;-31
2023/05/03 04:31:13;;;;;;;7.30;3.20;;;;;;;-128.00;-1.00;-1.00;19608;287;7504325;-36
2023/05/03 04:33:39;;;;;;;6.40;3.20;;;;;;;-128.00;-1.00;-1.00;20558;288;7504591;-36
2023/05/03 04:36:08;;;;;;;6.40;3.20;;;;;;;-128.00;-1.00;-1.00;21692;295;7505728;-36
2023/05/03 04:38:36;;;;;;;9.80;3.90;;;;;;;-128.00;-1.00;-1.00;20260;287;7504351;-36
2023/05/03 05:19:39;;;;;;;3.40;2.30;;;;;;;-100.65;17.18;20053.25;98271;294;1543300;-33
2023/05/03 05:22:05;;;;;;;10.70;2.30;;;;;;;-128.00;-1.00;-1.00;97639;295;1004160;-34
2023/05/03 05:24:30;;;;;;;7.60;2.80;;;;;;;-128.00;-1.00;-1.00;97868;295;1002894;-36
2023/05/03 05:26:56;;;;;;;4.40;2.80;;;;;;;-128.00;-1.00;-1.00;97956;294;1003306;-34
2023/05/03 05:29:21;;;;;;;3.40;2.10;;;;;;;-128.00;-1.00;-1.00;98016;295;1004115;-32
2023/05/03 05:31:47;;;;;;;7.00;3.00;;;;;;;-128.00;-1.00;-1.00;97871;294;1004187;-34
2023/05/03 05:34:12;;;;;;;7.10;2.10;;;;;;;-128.00;-1.00;-1.00;97908;294;1003766;-37
2023/05/03 05:36:38;;;;;;;5.40;2.30;;;;;;;-128.00;-1.00;-1.00;97985;294;1004075;-35
2023/05/03 05:39:04;;;;;;;7.80;2.00;;;;;;;-128.00;-1.00;-1.00;97904;295;1003506;-34
2023/05/03 05:41:29;;;;;;;4.60;2.50;;;;;;;-128.00;-1.00;-1.00;97952;295;1003117;-29
2023/05/03 05:43:55;;;;;;;7.30;2.10;;;;;;;-128.00;-1.00;-1.00;97957;294;1003670;-33
2023/05/03 05:46:20;;;;;;;7.90;2.80;;;;;;;-128.00;-1.00;-1.00;98079;294;1004763;-30
2023/05/03 05:48:46;;;;;;;4.60;1.80;;;;;;;-128.00;-1.00;-1.00;97859;283;1003108;-31
2023/05/03 05:51:12;;;;;;;6.20;2.70;;;;;;;-128.00;-1.00;-1.00;97733;294;1003662;-34
2023/05/03 05:53:37;;;;;;;4.00;2.10;;;;;;;-128.00;-1.00;-1.00;97926;295;1003747;-30
2023/05/03 05:56:05;;;;;;;5.10;2.40;;;;;;;-128.00;-1.00;-1.00;98046;295;1003166;-34
2023/05/03 05:58:30;;;;;;;6.90;2.70;;;;;;;-128.00;-1.00;-1.00;98024;295;1004173;-30
2023/05/03 06:01:00;;;;;;;7.60;1.50;;;;;;;-128.00;-1.00;-1.00;97965;295;1003488;-34
2023/05/03 06:03:26;;;;;;;7.90;3.30;;;;;;;-128.00;-1.00;-1.00;98000;295;1003842;-34
2023/05/03 06:05:51;;;;;;;5.70;1.80;;;;;;;-128.00;-1.00;-1.00;97993;294;1003726;-34
2023/05/03 06:08:17;;;;;;;13.40;2.00;;;;;;;-128.00;-1.00;-1.00;97767;295;1003927;-31
2023/05/03 06:10:43;;;;;;;10.10;2.90;;;;;;;-128.00;-1.00;-1.00;97862;295;1003455;-30
2023/05/03 06:13:09;;;;;;;3.30;2.00;;;;;;;-128.00;-1.00;-1.00;97908;294;1003855;-30
2023/05/03 06:15:34;;;;;;;5.20;2.50;;;;;;;-128.00;-1.00;-1.00;97849;295;1003382;-30
2023/05/03 06:18:00;;;;;;;8.20;2.70;;;;;;;-128.00;-1.00;-1.00;98043;295;1002878;-34
2023/05/03 06:20:25;;;;;;;3.00;2.20;;;;;;;-128.00;-1.00;-1.00;97854;294;1003693;-35
2023/05/03 06:22:51;;;;;;;12.60;2.20;;;;;;;-128.00;-1.00;-1.00;97911;295;1003060;-33
2023/05/03 06:25:17;;;;;;;9.90;2.60;;;;;;;-128.00;-1.00;-1.00;98020;294;1002681;-31
2023/05/03 06:27:42;;;;;;;3.00;2.00;;;;;;;-128.00;-1.00;-1.00;97880;294;1003937;-35
2023/05/03 06:30:09;;;;;;;16.90;2.20;;;;;;;-128.00;-1.00;-1.00;97862;294;1002686;-34
2023/05/03 06:32:37;;;;;;;5.10;2.10;;;;;;;-128.00;-1.00;-1.00;97922;294;1003021;-34
2023/05/03 06:35:04;;;;;;;6.50;1.90;;;;;;;-128.00;-1.00;-1.00;97884;295;1003264;-34
2023/05/03 06:37:29;;;;;;;1.50;1.40;;;;;;;-128.00;-1.00;-1.00;94759;294;3002972;-36
2023/05/03 06:39:55;;;;;;;4.00;2.30;;;;;;;-128.00;-1.00;-1.00;97798;283;1003290;-32
2023/05/03 06:42:21;;;;;;;8.60;3.90;;;;;;;-128.00;-1.00;-1.00;58108;295;7503756;-34
2023/05/03 06:44:47;;;;;;;6.30;3.30;;;;;;;-128.00;-1.00;-1.00;56838;295;7504287;-30
2023/05/03 06:47:13;;;;;;;3.70;1.80;;;;;;;-128.00;-1.00;-1.00;78847;294;4354641;-34
2023/05/03 06:49:38;;;;;;;10.90;2.80;;;;;;;-128.00;-1.00;-1.00;97212;283;1002987;-31
2023/05/03 06:52:04;;;;;;;4.40;2.20;;;;;;;-128.00;-1.00;-1.00;93710;295;2707471;-30
2023/05/03 06:54:30;;;;;;;4.50;2.50;;;;;;;-128.00;-1.00;-1.00;97920;295;1003568;-30
2023/05/03 06:56:55;;;;;;;3.90;1.90;;;;;;;-128.00;-1.00;-1.00;97838;294;1003309;-29
2023/05/03 06:59:21;;;;;;;2.30;1.50;;;;;;;-128.00;-1.00;-1.00;97911;295;1003591;-35
2023/05/03 07:01:47;;;;;;;3.90;1.90;;;;;;;-128.00;-1.00;-1.00;97779;295;1003425;-30
2023/05/03 07:04:12;;;;;;;3.70;2.00;;;;;;;-128.00;-1.00;-1.00;97934;295;1003796;-34
2023/05/03 07:06:38;;;;;;;5.00;1.70;;;;;;;-128.00;-1.00;-1.00;97910;295;1003211;-34
2023/05/03 07:09:03;;;;;;;8.40;1.20;;;;;;;-128.00;-1.00;-1.00;97782;295;1003254;-29
2023/05/03 07:11:33;;;;;;;2.90;1.50;;;;;;;-128.00;-1.00;-1.00;98141;294;1003312;-33
2023/05/03 07:13:59;;;;;;;9.00;1.90;;;;;;;-128.00;-1.00;-1.00;97971;294;1002733;-35
2023/05/03 07:16:25;;;;;;;2.70;1.60;;;;;;;-128.00;-1.00;-1.00;97894;294;1003831;-30
2023/05/03 07:18:51;;;;;;;3.30;2.10;;;;;;;-128.00;-1.00;-1.00;97811;296;1003594;-34
2023/05/03 07:21:16;;;;;;;5.00;1.60;;;;;;;-128.00;-1.00;-1.00;97920;294;1003907;-39
2023/05/03 07:23:43;;;;;;;1.70;1.30;;;;;;;-128.00;-1.00;-1.00;97896;294;1002496;-36
2023/05/03 07:26:09;;;;;;;3.90;1.40;;;;;;;-128.00;-1.00;-1.00;97888;295;1003149;-30
2023/05/03 07:28:34;;;;;;;5.40;1.80;;;;;;;-128.00;-1.00;-1.00;98002;294;1004185;-34
2023/05/03 07:31:02;;;;;;;5.30;1.70;;;;;;;-128.00;-1.00;-1.00;97941;295;1003104;-34
2023/05/03 07:33:27;;;;;;;3.10;1.20;;;;;;;-128.00;-1.00;-1.00;97825;294;1003588;-30
2023/05/03 07:35:53;;;;;;;5.10;2.80;;;;;;;-128.00;-1.00;-1.00;97840;294;1003396;-30
2023/05/03 07:38:19;;;;;;;3.30;2.00;;;;;;;-128.00;-1.00;-1.00;97993;294;1004481;-34
2023/05/03 07:40:45;;;;;;;2.70;1.50;;;;;;;-128.00;-1.00;-1.00;97904;295;1003271;-30
2023/05/03 07:43:11;;;;;;;2.20;1.60;;;;;;;-128.00;-1.00;-1.00;97902;295;1003126;-34
2023/05/03 07:45:37;;;;;;;2.40;1.70;;;;;;;-128.00;-1.00;-1.00;98008;294;1004781;-31
2023/05/03 07:48:03;;;;;;;1.70;1.20;;;;;;;-128.00;-1.00;-1.00;97879;295;1003795;-35
2023/05/03 07:50:30;;;;;;;4.20;1.80;;;;;;;-128.00;-1.00;-1.00;97909;294;1003481;-33
2023/05/03 07:52:56;;;;;;;5.10;2.40;;;;;;;-128.00;-1.00;-1.00;97879;288;1003071;-36
2023/05/03 07:55:21;;;;;;;2.80;1.60;;;;;;;-128.00;-1.00;-1.00;97834;294;1003052;-32
2023/05/03 07:57:47;;;;;;;2.40;1.40;;;;;;;-128.00;-1.00;-1.00;97868;294;1003812;-34
2023/05/03 08:00:14;;;;;;;7.60;1.50;;;;;;;-128.00;-1.00;-1.00;98033;294;1003015;-30
2023/05/03 08:02:40;;;;;;;1.40;1.10;;;;;;;-128.00;-1.00;-1.00;97903;294;1002876;-34
2023/05/03 08:05:07;;;;;;;2.10;1.20;;;;;;;-128.00;-1.00;-1.00;97995;294;1003692;-30
2023/05/03 08:07:33;;;;;;;4.70;1.90;;;;;;;-128.00;-1.00;-1.00;97989;294;1003255;-30
2023/05/03 08:09:58;;;;;;;4.10;1.30;;;;;;;-128.00;-1.00;-1.00;97893;294;1003653;-30
2023/05/03 08:12:25;;;;;;;4.10;2.00;;;;;;;-128.00;-1.00;-1.00;97935;294;1004532;-31
2023/05/03 08:14:55;;;;;;;2.30;1.20;;;;;;;-128.00;-1.00;-1.00;97879;295;1004109;-35
2023/05/03 08:17:21;;;;;;;5.40;1.10;;;;;;;-128.00;-1.00;-1.00;98089;283;1002876;-30
2023/05/03 08:19:48;;;;;;;4.80;1.30;;;;;;;-128.00;-1.00;-1.00;97749;298;1003890;-34
2023/05/03 08:22:15;;;;;;;2.40;1.30;;;;;;;-128.00;-1.00;-1.00;97956;294;1003947;-35
2023/05/03 08:24:41;;;;;;;0.90;0.70;;;;;;;-128.00;-1.00;-1.00;97856;294;1003272;-34
2023/05/03 08:27:08;;;;;;;1.50;0.70;;;;;;;-128.00;-1.00;-1.00;97968;295;1002774;-36
2023/05/03 08:29:36;;;;;;;2.10;1.60;;;;;;;-128.00;-1.00;-1.00;98052;294;1003666;-30
2023/05/03 08:32:03;;;;;;;2.40;1.00;;;;;;;-128.00;-1.00;-1.00;97935;294;1003429;-32
2023/05/03 08:34:29;;;;;;;1.40;0.70;;;;;;;-128.00;-1.00;-1.00;97861;296;1005110;-31
2023/05/03 08:36:55;;;;;;;3.10;0.90;;;;;;;-128.00;-1.00;-1.00;97890;295;1004419;-32
2023/05/03 08:39:24;;;;;;;3.50;1.10;;;;;;;-128.00;-1.00;-1.00;98065;294;1003647;-30
2023/05/03 08:41:50;;;;;;;2.10;1.10;;;;;;;-128.00;-1.00;-1.00;97830;296;1002928;-34
2023/05/03 08:44:22;;;;;;;4.80;1.40;;;;;;;-128.00;-1.00;-1.00;97859;294;1003185;-34
2023/05/03 08:46:51;;;;;;;3.90;0.80;;;;;;;-128.00;-1.00;-1.00;97866;295;1005340;-35
2023/05/03 08:49:17;;;;;;;5.30;1.00;;;;;;;-128.00;-1.00;-1.00;98006;284;1002471;-31
2023/05/03 08:51:46;;;;;;;2.40;0.80;;;;;;;-128.00;-1.00;-1.00;97759;287;1003245;-33
2023/05/03 08:54:13;;;;;;;2.60;1.10;;;;;;;-128.00;-1.00;-1.00;97948;283;1003171;-34
2023/05/03 08:56:41;;;;;;;5.00;1.00;;;;;;;-128.00;-1.00;-1.00;98014;295;1003750;-30
2023/05/03 08:59:07;;;;;;;1.60;1.30;;;;;;;-128.00;-1.00;-1.00;97966;295;1003847;-34
2023/05/03 09:01:39;;;;;;;5.40;1.00;;;;;;;-128.00;-1.00;-1.00;97876;294;1003057;-31
2023/05/03 09:04:06;;;;;;;3.90;1.40;;;;;;;-128.00;-1.00;-1.00;98005;294;1003241;-35
2023/05/03 09:06:32;;;;;;;2.70;1.00;;;;;;;-128.00;-1.00;-1.00;98003;294;1003062;-35
2023/05/03 09:08:58;;;;;;;3.30;1.20;;;;;;;-128.00;-1.00;-1.00;97972;295;1004395;-31
2023/05/03 09:11:28;;;;;;;4.40;1.40;;;;;;;-128.00;-1.00;-1.00;97882;295;1005316;-34
2023/05/03 09:14:11;;;;;;;9.10;2.00;;;;;;;-128.00;-1.00;-1.00;97878;285;1003799;-33
2023/05/03 09:16:37;;;;;;;5.80;1.40;;;;;;;-128.00;-1.00;-1.00;97899;284;1003831;-29
2023/05/03 09:19:07;;;;;;;4.90;1.30;;;;;;;-128.00;-1.00;-1.00;97821;295;1003060;-31
2023/05/03 09:21:32;;;;;;;3.30;1.10;;;;;;;-128.00;-1.00;-1.00;97864;295;1003473;-31
2023/05/03 09:23:58;;;;;;;4.00;1.20;;;;;;;-128.00;-1.00;-1.00;98084;295;1003244;-31
2023/05/03 09:26:27;;;;;;;2.50;1.10;;;;;;;-128.00;-1.00;-1.00;97820;284;1004823;-31
2023/05/03 09:28:53;;;;;;;1.60;0.80;;;;;;;-128.00;-1.00;-1.00;97883;295;1003699;-32
2023/05/03 09:31:19;;;;;;;2.90;1.00;;;;;;;-128.00;-1.00;-1.00;97838;295;1004163;-31
2023/05/03 09:33:45;;;;;;;2.20;0.90;;;;;;;-128.00;-1.00;-1.00;97817;295;1004021;-31
2023/05/03 09:36:10;;;;;;;2.20;1.00;;;;;;;-128.00;-1.00;-1.00;97840;295;1003202;-32
2023/05/03 09:38:36;;;;;;;7.10;1.50;;;;;;;-128.00;-1.00;-1.00;97811;295;1003788;-30
2023/05/03 09:41:02;;;;;;;1.40;0.60;;;;;;;-128.00;-1.00;-1.00;97857;295;1003462;-35
2023/05/03 09:43:28;;;;;;;4.50;0.70;;;;;;;-128.00;-1.00;-1.00;97873;295;1002748;-40
2023/05/03 09:46:07;;;;;;;2.00;0.70;;;;;;;-128.00;-1.00;-1.00;97905;295;1003174;-40
2023/05/03 09:48:32;;;;;;;1.80;0.90;;;;;;;-128.00;-1.00;-1.00;97829;295;1004097;-32
2023/05/03 09:50:58;;;;;;;2.80;1.00;;;;;;;-128.00;-1.00;-1.00;97864;295;1003847;-36
2023/05/03 09:53:27;;;;;;;4.60;0.80;;;;;;;-128.00;-1.00;-1.00;97885;295;1004699;-31
2023/05/03 09:55:54;;;;;;;2.10;0.80;;;;;;;-128.00;-1.00;-1.00;98079;294;1004473;-35
2023/05/03 09:58:20;;;;;;;4.10;1.70;;;;;;;-128.00;-1.00;-1.00;97790;284;1003983;-35
2023/05/03 10:00:47;;;;;;;1.40;1.00;;;;;;;-128.00;-1.00;-1.00;97771;283;1004699;-35
2023/05/03 10:03:19;;;;;;;2.30;0.90;;;;;;;-128.00;-1.00;-1.00;97793;283;1003165;-30
2023/05/03 10:05:48;;;;;;;3.40;1.40;;;;;;;-128.00;-1.00;-1.00;97824;294;1003687;-30
2023/05/03 10:08:31;;;;;;;3.40;1.00;;;;;;;-128.00;-1.00;-1.00;97918;295;1003806;-31
2023/05/03 10:10:56;;;;;;;2.50;1.20;;;;;;;-128.00;-1.00;-1.00;97868;296;1003185;-31
2023/05/03 10:13:22;;;;;;;7.10;1.20;;;;;;;-128.00;-1.00;-1.00;97919;295;1002782;-35
2023/05/03 10:15:51;;;;;;;1.80;0.50;;;;;;;-128.00;-1.00;-1.00;97868;294;1003147;-32
2023/05/03 10:18:17;;;;;;;0.80;0.50;;;;;;;-128.00;-1.00;-1.00;97966;294;1004469;-31
2023/05/03 10:20:49;;;;;;;1.90;0.70;;;;;;;-128.00;-1.00;-1.00;97948;294;1002987;-32
2023/05/03 10:23:15;;;;;;;1.80;0.70;;;;;;;-128.00;-1.00;-1.00;97900;295;1003605;-31
2023/05/03 10:26:12;;;;;;;2.60;0.80;;;;;;;-128.00;-1.00;-1.00;97910;294;1003040;-35
2023/05/03 10:28:37;;;;;;;1.20;0.70;;;;;;;-128.00;-1.00;-1.00;97991;294;1003314;-32
2023/05/03 10:31:03;;;;;;;1.00;0.60;;;;;;;-128.00;-1.00;-1.00;97839;283;1003293;-31
2023/05/03 10:33:31;;;;;;;4.60;0.80;;;;;;;-128.00;-1.00;-1.00;97841;294;1003039;-35
2023/05/03 10:35:58;;;;;;;1.50;0.80;;;;;;;-128.00;-1.00;-1.00;98032;294;1003550;-35
2023/05/03 10:38:24;;;;;;;4.40;1.10;;;;;;;-128.00;-1.00;-1.00;97920;295;1003572;-31
2023/05/03 10:40:50;;;;;;;2.00;1.00;;;;;;;-128.00;-1.00;-1.00;97949;294;1005239;-32
2023/05/03 10:43:40;;;;;;;1.60;0.90;;;;;;;-128.00;-1.00;-1.00;97894;286;1002717;-31
2023/05/03 10:46:07;;;;;;;3.20;1.30;;;;;;;-128.00;-1.00;-1.00;97952;294;1003017;-36
2023/05/03 10:48:33;;;;;;;1.60;0.70;;;;;;;-128.00;-1.00;-1.00;97852;288;1004615;-32
2023/05/03 10:51:35;;;;;;;2.80;0.90;;;;;;;-128.00;-1.00;-1.00;97835;295;1003289;-35
2023/05/03 10:54:01;;;;;;;2.40;1.00;;;;;;;-128.00;-1.00;-1.00;97807;294;1003125;-31
2023/05/03 10:56:26;;;;;;;5.20;0.80;;;;;;;-128.00;-1.00;-1.00;97858;295;1003428;-35
2023/05/03 10:58:55;;;;;;;1.90;0.80;;;;;;;-128.00;-1.00;-1.00;97796;294;1005416;-30
2023/05/03 11:01:25;;;;;;;1.20;0.90;;;;;;;-128.00;-1.00;-1.00;97819;294;1003688;-30
2023/05/03 11:04:05;;;;;;;3.00;0.70;;;;;;;-128.00;-1.00;-1.00;97862;284;1004339;-35
2023/05/03 11:06:35;;;;;;;2.90;0.90;;;;;;;-128.00;-1.00;-1.00;97915;294;1003526;-36
2023/05/03 11:49:01;;;;;;;1.90;1.00;;;;;;;-99.00;6.21;20073.99;97980;296;1545694;-35
2023/05/03 11:51:27;;;;;;;4.00;1.00;;;;;;;-128.00;-1.00;-1.00;97321;299;1004740;-33
2023/05/03 11:53:52;;;;;;;1.60;0.60;;;;;;;-128.00;-1.00;-1.00;97511;296;1006255;-35
2023/05/03 11:56:19;;;;;;;3.10;0.60;;;;;;;-128.00;-1.00;-1.00;97632;296;1004657;-37
2023/05/03 11:58:55;;;;;;;8.00;1.20;;;;;;;-128.00;-1.00;-1.00;97599;296;1004556;-32
2023/05/03 12:01:22;;;;;;;1.80;0.90;;;;;;;-128.00;-1.00;-1.00;97844;297;1002828;-30
2023/05/03 12:03:52;;;;;;;1.20;0.60;;;;;;;-128.00;-1.00;-1.00;97824;297;1003191;-30
2023/05/03 12:06:18;;;;;;;0.80;0.40;;;;;;;-128.00;-1.00;-1.00;97873;297;1002835;-36
2023/05/03 12:08:44;;;;;;;4.00;1.00;;;;;;;-128.00;-1.00;-1.00;97872;297;1002403;-30
2023/05/03 12:11:12;;;;;;;1.20;0.70;;;;;;;-128.00;-1.00;-1.00;97785;297;1002798;-31
2023/05/03 12:13:38;;;;;;;3.00;0.60;;;;;;;-128.00;-1.00;-1.00;97881;296;1002670;-31
2023/05/03 12:16:05;;;;;;;4.30;0.70;;;;;;;-128.00;-1.00;-1.00;97830;297;1002854;-31
2023/05/03 12:18:48;;;;;;;1.40;0.70;;;;;;;-128.00;-1.00;-1.00;97857;296;1002841;-30
2023/05/03 12:21:14;;;;;;;0.80;0.60;;;;;;;-128.00;-1.00;-1.00;97872;297;1004925;-34
2023/05/03 12:23:41;;;;;;;1.20;0.90;;;;;;;-128.00;-1.00;-1.00;97931;297;1002611;-37
2023/05/03 12:26:07;;;;;;;2.70;0.70;;;;;;;-128.00;-1.00;-1.00;97895;297;1004097;-31
2023/05/03 12:28:33;;;;;;;2.50;0.70;;;;;;;-128.00;-1.00;-1.00;97831;297;1004052;-30
2023/05/03 12:30:59;;;;;;;2.50;0.80;;;;;;;-128.00;-1.00;-1.00;97808;297;1002719;-31
2023/05/03 12:33:25;;;;;;;3.50;0.90;;;;;;;-128.00;-1.00;-1.00;97848;297;1002931;-32
2023/05/03 12:35:51;;;;;;;1.40;0.70;;;;;;;-128.00;-1.00;-1.00;97899;297;1003814;-36
2023/05/03 12:38:16;;;;;;;1.50;0.80;;;;;;;-128.00;-1.00;-1.00;97980;297;1003837;-35
2023/05/03 12:40:43;;;;;;;2.60;0.90;;;;;;;-128.00;-1.00;-1.00;97712;297;1002442;-31
2023/05/03 12:43:09;;;;;;;2.90;1.20;;;;;;;-128.00;-1.00;-1.00;97805;297;1002895;-31
2023/05/03 12:45:35;;;;;;;1.50;0.80;;;;;;;-128.00;-1.00;-1.00;97837;297;1005122;-30
2023/05/03 12:48:01;;;;;;;0.70;0.40;;;;;;;-128.00;-1.00;-1.00;97938;296;1002538;-30
2023/05/03 12:50:27;;;;;;;1.40;0.70;;;;;;;-128.00;-1.00;-1.00;97904;296;1002640;-34